D/T METAR WX W/DIR W/SPE G/SPE TEMP DEWP
6/06/20 09:50 EGWU 060850Z 27018KT 9999 BKN034 12/03 Q0998 NOSIG RMK BLU BLU W (270°) 20.7mph 12°C 3°C
6/06/20 09:20 EGWU 060820Z 28020KT 9999 BKN035 11/03 Q0998 NOSIG RMK BLU BLU W (280°) 23.0mph 11°C 3°C
6/06/20 08:50 EGWU 060750Z 27018KT 9999 FEW030 SCT034 11/03 Q0998 NOSIG RMK BLU BLU W (270°) 20.7mph 11°C 3°C
6/06/20 07:50 EGWU 060650Z AUTO 26017KT 9999 // NCD 10/03 Q0998 W (260°) 19.6mph 10°C 3°C
6/06/20 06:50 EGWU 060550Z AUTO 26015KT 9999 // NCD 08/03 Q0998 W (260°) 17.3mph 8°C 3°C
6/06/20 05:50 EGWU 060450Z AUTO 26011KT 9999 // NCD 07/03 Q0998 W (260°) 12.7mph 7°C 3°C
6/06/20 04:50 EGWU 060350Z AUTO 26009KT 9999 // NCD 07/03 Q0998 W (260°) 10.4mph 7°C 3°C
6/06/20 03:50 EGWU 060250Z AUTO 26008KT 9999 // NCD 07/03 Q0998 W (260°) 9.2mph 7°C 3°C
6/06/20 02:50 EGWU 060150Z AUTO 27010KT 9999 // NCD 08/03 Q0998 W (270°) 11.5mph 8°C 3°C
6/06/20 01:50 EGWU 060050Z AUTO 28008KT 9999 // NCD 08/03 Q0998 W (280°) 9.2mph 8°C 3°C
6/06/20 00:50 EGWU 052350Z AUTO 28009KT 9999 // NCD 09/03 Q0998 W (280°) 10.4mph 9°C 3°C
5/06/20 23:50 EGWU 052250Z AUTO 28008KT 9999 // FEW150/// 10/03 Q0998 W (280°) 9.2mph 10°C 3°C
5/06/20 22:50 EGWU 052150Z AUTO 28008KT 9999 // BKN140/// 11/03 Q0998 W (280°) 9.2mph 11°C 3°C
5/06/20 21:50 EGWU 052050Z AUTO 29005KT 9999 // FEW060/// OVC130/// 11/03 Q0998 WNW (290°) 5.8mph 11°C 3°C
5/06/20 20:50 EGWU 051950Z AUTO 29008KT 9999 // FEW060/// BKN130/// 12/02 Q0997 WNW (290°) 9.2mph 12°C 2°C
5/06/20 19:50 EGWU 051850Z 29013KT 9999 FEW040 14/02 Q0997 NOSIG RMK BLU BLU WNW (290°) 15.0mph 14°C 2°C
5/06/20 19:20 EGWU 051820Z 28012KT 9999 FEW040 14/03 Q0997 NOSIG RMK BLU BLU W (280°) 13.8mph 14°C 3°C
5/06/20 18:50 EGWU 051750Z 28009KT 9999 FEW040 SCT060 14/05 Q0997 NOSIG RMK BLU BLU W (280°) 10.4mph 14°C 5°C
5/06/20 18:20 EGWU 051720Z 31018KT 9999 FEW040 BKN050 13/04 Q0997 NOSIG RMK BLU BLU NW (310°) 20.7mph 13°C 4°C
5/06/20 17:50 EGWU 051650Z 29009KT 9999 FEW040 SCT050 BKN090 14/07 Q0997 NOSIG RMK BLU BLU WNW (290°) 10.4mph 14°C 7°C
5/06/20 17:20 EGWU 051620Z 29009KT 9999 FEW040CB SCT090 15/07 Q0996 NOSIG RMK BLU BLU WNW (290°) 10.4mph 15°C 7°C
5/06/20 16:20 EGWU 051520Z 30005KT 9999 -SHRA BKN040CB 12/07 Q0997 TEMPO 7000 SHRA -SHRA WNW (300°) 5.8mph 12°C 7°C
5/06/20 15:50 EGWU 051450Z 30015KT 9999 -SHRA FEW036 BKN040CB 14/03 Q0997 TEMPO 7000 SHRA -SHRA WNW (300°) 17.3mph 14°C 3°C
5/06/20 15:22 EGWU 051422Z 30012KT 9999 FEW030CB SCT080 16/02 Q0997 TEMPO 7000 SHRA BKN030CB RMK BLU TEMPO WHT WNW (300°) 13.8mph 16°C 2°C
5/06/20 14:50 EGWU 051350Z 32016G26KT 9999 FEW030CB BKN060 14/03 Q0997 TEMPO 7000 SHRA NW (320°) 18.4mph 29.9mph 14°C 3°C
5/06/20 14:23 EGWU 051323Z 32019G30KT 9999 VCSH FEW030TCU BKN050 14/02 Q0997 TEMPO 7000 SHRA RMK BLU TEMPO WHT VCSH NW (320°) 21.9mph 34.5mph 14°C 2°C
5/06/20 13:50 EGWU 051250Z 32019KT 9999 SCT042 16/01 Q0996 TEMPO 7000 SHRA RMK BLU TEMPO WHT NW (320°) 21.9mph 16°C 1°C
5/06/20 13:19 EGWU 051219Z 33017KT 9999 SCT042 15/03 Q0996 TEMPO 7000 SHRA RMK BLU TEMPO WHT NNW (330°) 19.6mph 15°C 3°C
5/06/20 12:50 EGWU 051150Z 31017G27KT 9999 SCT042 SCT050 14/03 Q0996 TEMPO 7000 SHRA RMK BLU TEMPO WHT NW (310°) 19.6mph 31.1mph 14°C 3°C
5/06/20 12:19 EGWU 051119Z 31018G29KT 9999 SCT038 BKN050 BKN130 14/03 Q0996 NOSIG RMK BLU BLU NW (310°) 20.7mph 33.4mph 14°C 3°C
5/06/20 11:50 EGWU 051050Z 31017KT 9999 FEW036 SCT050 BKN130 14/04 Q0996 NOSIG RMK BLU BLU NW (310°) 19.6mph 14°C 4°C
5/06/20 11:20 EGWU 051020Z 31018KT 9999 FEW036 BKN050 BKN130 13/05 Q0996 NOSIG RMK BLU BLU NW (310°) 20.7mph 13°C 5°C
5/06/20 10:50 EGWU 050950Z 30018KT 9999 SCT036 BKN050 BKN120 13/05 Q0996 NOSIG RMK BLU BLU WNW (300°) 20.7mph 13°C 5°C
5/06/20 10:20 EGWU 050920Z 31016KT 9999 BKN035 BKN120 13/05 Q0995 NOSIG RMK BLU BLU NW (310°) 18.4mph 13°C 5°C
5/06/20 09:50 EGWU 050850Z 31019KT 9999 BKN038 BKN120 13/05 Q0995 NOSIG RMK BLU BLU NW (310°) 21.9mph 13°C 5°C
5/06/20 09:20 EGWU 050820Z 30017KT 9999 BKN038 BKN120 13/05 Q0995 NOSIG RMK BLU BLU WNW (300°) 19.6mph 13°C 5°C
5/06/20 08:50 EGWU 050750Z 30015KT 9999 SCT034 BKN050 12/05 Q0995 NOSIG RMK BLU BLU WNW (300°) 17.3mph 12°C 5°C
5/06/20 07:50 EGWU 050650Z AUTO 30014KT 9999 // FEW036/// SCT050/// BKN120/// 12/06 Q0995 WNW (300°) 16.1mph 12°C 6°C
5/06/20 06:50 EGWU 050550Z AUTO 28007KT 9999 // FEW039/// BKN120/// 11/08 Q0995 W (280°) 8.1mph 11°C 8°C
5/06/20 05:50 EGWU 050450Z AUTO 30009KT 9999 // SCT036/// BKN050/// 10/08 Q0995 WNW (300°) 10.4mph 10°C 8°C
5/06/20 04:50 EGWU 050350Z AUTO 28008KT 9999 // FEW039/// BKN050/// 10/08 Q0996 W (280°) 9.2mph 10°C 8°C
5/06/20 03:50 EGWU 050250Z AUTO 26011KT 9999 // BKN050/// SCT120/// 11/09 Q0996 W (260°) 12.7mph 11°C 9°C
5/06/20 02:50 EGWU 050150Z AUTO 25010KT 9999 // OVC060/// 11/09 Q0997 WSW (250°) 11.5mph 11°C 9°C
5/06/20 01:50 EGWU 050050Z AUTO 26008KT 9999 // FEW080/// OVC120/// 11/09 Q0998 W (260°) 9.2mph 11°C 9°C
5/06/20 00:50 EGWU 042350Z AUTO 24006KT 9999 // BKN140/// 11/09 Q0998 WSW (240°) 6.9mph 11°C 9°C
4/06/20 23:50 EGWU 042250Z AUTO 24006KT 9999 // BKN060/// OVC140/// 11/09 Q0999 WSW (240°) 6.9mph 11°C 9°C
4/06/20 22:50 EGWU 042150Z AUTO 25006KT 9999 // BKN050/// BKN120/// 11/08 Q1000 WSW (250°) 6.9mph 11°C 8°C
4/06/20 21:50 EGWU 042050Z AUTO 27008KT 9999 // FEW048/// BKN060/// 12/08 Q1001 W (270°) 9.2mph 12°C 8°C
4/06/20 20:50 EGWU 041950Z 28009KT 9999 FEW042 BKN050 BKN080 12/07 Q1001 NOSIG RMK BLU BLU W (280°) 10.4mph 12°C 7°C
4/06/20 20:23 EGWU 041923Z 28010KT 9999 FEW042 BKN050 13/07 Q1001 NOSIG RMK BLU BLU W (280°) 11.5mph 13°C 7°C
4/06/20 19:50 EGWU 041850Z 31009KT 9999 FEW036 BKN060 13/06 Q1001 NOSIG RMK BLU BLU NW (310°) 10.4mph 13°C 6°C
4/06/20 19:19 EGWU 041819Z 28006KT 9999 SCT045 BKN060 13/07 Q1001 NOSIG RMK BLU BLU W (280°) 6.9mph 13°C 7°C
4/06/20 18:50 EGWU 041750Z 29005KT 9999 FEW036 BKN048 13/07 Q1001 NOSIG RMK BLU BLU WNW (290°) 5.8mph 13°C 7°C
4/06/20 18:24 EGWU 041724Z 27008KT 9999 SCT036 BKN045 13/06 Q1001 NOSIG RMK BLU BLU W (270°) 9.2mph 13°C 6°C
4/06/20 17:50 EGWU 041650Z 28005KT 9999 BKN046 13/06 Q1001 NOSIG RMK BLU BLU W (280°) 5.8mph 13°C 6°C
4/06/20 17:20 EGWU 041620Z 27009KT 9999 FEW035 BKN045 13/06 Q1001 NOSIG RMK BLU BLU W (270°) 10.4mph 13°C 6°C
4/06/20 16:50 EGWU 041550Z 31009KT 9999 SCT036 BKN048 14/05 Q1002 BLU NOSIG RMK BLU BLU NW (310°) 10.4mph 14°C 5°C
4/06/20 16:20 EGWU 041520Z 30012KT 9999 FEW038 BKN048 14/05 Q1002 NOSIG RMK BLU BLU WNW (300°) 13.8mph 14°C 5°C
4/06/20 15:50 EGWU 041450Z 30010KT 9999 BKN040 15/05 Q1002 NOSIG RMK BLU BLU WNW (300°) 11.5mph 15°C 5°C
4/06/20 15:19 EGWU 041419Z 32009KT 9999 FEW045 BKN070 BKN250 15/04 Q1002 NOSIG RMK BLU BLU NW (320°) 10.4mph 15°C 4°C
4/06/20 14:50 EGWU 041350Z 34009KT 9999 FEW042 BKN050 15/04 Q1002 NOSIG RMK BLU BLU NNW (340°) 10.4mph 15°C 4°C
4/06/20 14:20 EGWU 041320Z 33011KT 9999 FEW042 BKN050 BKN250 15/04 Q1003 NOSIG RMK BLU BLU NNW (330°) 12.7mph 15°C 4°C
4/06/20 13:50 EGWU 041250Z 33012KT 9999 BKN045 BKN250 15/03 Q1003 NOSIG RMK BLU BLU NNW (330°) 13.8mph 15°C 3°C
4/06/20 13:19 EGWU 041219Z 34010KT 9999 SCT042 SCT130 BKN250 15/04 Q1003 NOSIG RMK BLU BLU NNW (340°) 11.5mph 15°C 4°C
4/06/20 12:50 EGWU 041150Z 34010KT 9999 FEW042 BKN250 15/03 Q1003 NOSIG RMK BLU BLU NNW (340°) 11.5mph 15°C 3°C
4/06/20 12:20 EGWU 041120Z 35011KT 9999 FEW032 BKN130 BKN250 15/04 Q1003 NOSIG RMK BLU BLU N (350°) 12.7mph 15°C 4°C
4/06/20 11:50 EGWU 041050Z 35012KT 9999 FEW032 BKN130 14/03 Q1003 NOSIG RMK BLU BLU N (350°) 13.8mph 14°C 3°C
4/06/20 11:21 EGWU 041021Z 36011KT 9999 FEW028 BKN140 14/04 Q1003 NOSIG RMK BLU BLU N (360°) 12.7mph 14°C 4°C
4/06/20 10:50 EGWU 040950Z 36012KT 9999 FEW028 BKN140 14/05 Q1003 NOSIG RMK BLU BLU N (360°) 13.8mph 14°C 5°C
4/06/20 10:20 EGWU 040920Z 36009KT 9999 FEW024 BKN060 BKN140 14/04 Q1003 NOSIG RMK BLU BLU N (360°) 10.4mph 14°C 4°C
4/06/20 09:50 EGWU 040850Z 36011KT 9999 SCT024 BKN060 13/07 Q1004 NOSIG RMK WHT WHT N (360°) 12.7mph 13°C 7°C
4/06/20 09:20 EGWU 040820Z 36010KT 9999 BKN022 BKN060 13/07 Q1004 NOSIG RMK WHT WHT N (360°) 11.5mph 13°C 7°C
4/06/20 08:50 EGWU 040750Z 01012KT 9999 BKN020 BKN060 13/07 Q1004 WHT NOSIG RMK WHT WHT N (10°) 13.8mph 13°C 7°C
4/06/20 07:50 EGWU 040650Z AUTO 01011KT 9999 // BKN014/// BKN020/// 12/08 Q1004 N (10°) 12.7mph 12°C 8°C
4/06/20 06:50 EGWU 040550Z AUTO 36007KT 9999 // BKN013/// BKN050/// 11/08 Q1004 N (360°) 8.1mph 11°C 8°C
4/06/20 05:50 EGWU 040450Z AUTO 36009KT 9999 // SCT015/// BKN021/// 10/07 Q1004 N (360°) 10.4mph 10°C 7°C
4/06/20 04:50 EGWU 040350Z AUTO 35010KT 9999 // BKN016/// SCT032/// 10/07 Q1005 N (350°) 11.5mph 10°C 7°C
4/06/20 03:50 EGWU 040250Z AUTO 36009KT 9999 // BKN012/// BKN021/// 11/08 Q1005 N (360°) 10.4mph 11°C 8°C
4/06/20 02:50 EGWU 040150Z AUTO 36011KT 9999 // OVC011/// 11/08 Q1005 N (360°) 12.7mph 11°C 8°C
4/06/20 01:50 EGWU 040050Z AUTO 01012KT 9999 // OVC010/// 11/09 Q1006 N (10°) 13.8mph 11°C 9°C
4/06/20 00:50 EGWU 032350Z AUTO 02010KT 9999 // BKN011/// 12/09 Q1006 NNE (20°) 11.5mph 12°C 9°C
3/06/20 23:50 EGWU 032250Z AUTO 02012KT 9999 // BKN014/// SCT060/// 12/10 Q1007 NNE (20°) 13.8mph 12°C 10°C
3/06/20 22:50 EGWU 032150Z AUTO 04014KT 9999 // FEW020/// BKN060/// 13/09 Q1007 NE (40°) 16.1mph 13°C 9°C
3/06/20 21:50 EGWU 032050Z AUTO 03013KT 9999 // BKN060/// 14/09 Q1007 NNE (30°) 15.0mph 14°C 9°C
3/06/20 20:50 EGWU 031950Z AUTO 03012KT 9999 // OVC060/// 15/09 Q1007 NNE (30°) 13.8mph 15°C 9°C
3/06/20 19:50 EGWU 031850Z 03014KT 9999 FEW026 BKN070 BKN090 15/08 Q1007 NOSIG RMK BLU BLU NNE (30°) 16.1mph 15°C 8°C
3/06/20 19:20 EGWU 031820Z 03013KT 9999 FEW024 BKN090 15/09 Q1007 NOSIG RMK BLU BLU NNE (30°) 15.0mph 15°C 9°C
3/06/20 18:50 EGWU 031750Z 02013KT 9999 FEW024 BKN060 BKN090 15/09 Q1007 NOSIG RMK BLU BLU NNE (20°) 15.0mph 15°C 9°C
3/06/20 18:20 EGWU 031720Z 03014KT 9999 -RA FEW024 BKN080 16/09 Q1007 NOSIG RMK BLU BLU -RA NNE (30°) 16.1mph 16°C 9°C
3/06/20 17:50 EGWU 031650Z 02013KT 9999 -RA FEW024 BKN060 BKN080 16/10 Q1007 NOSIG RMK BLU BLU -RA NNE (20°) 15.0mph 16°C 10°C
3/06/20 17:20 EGWU 031620Z 02012KT CAVOK 16/10 Q1007 NOSIG RMK BLU BLU NNE (20°) 13.8mph 16°C 10°C
3/06/20 16:50 EGWU 031550Z 03009KT 9999 -RA BKN060 BKN080 16/11 Q1007 NOSIG RMK BLU BLU -RA NNE (30°) 10.4mph 16°C 11°C
3/06/20 16:20 EGWU 031520Z 03009KT 9999 -RA BKN060 BKN080 16/11 Q1007 NOSIG RMK BLU BLU -RA NNE (30°) 10.4mph 16°C 11°C
3/06/20 15:53 EGWU 031453Z 03009KT 9999 -RA FEW050 BKN060 16/12 Q1007 NOSIG RMK BLU BLU -RA NNE (30°) 10.4mph 16°C 12°C
3/06/20 14:50 EGWU 031350Z 03011KT 9999 -RA FEW028 BKN060 BKN080 16/12 Q1007 NOSIG RMK BLU BLU -RA NNE (30°) 12.7mph 16°C 12°C
3/06/20 13:50 EGWU 031250Z 03010KT 9999 FEW036 BKN060 BKN080 19/09 Q1007 NOSIG RMK BLU BLU NNE (30°) 11.5mph 19°C 9°C